Lodge, Illinois
Current Conditions -  °F | °C
As of 6:53 AM on Wednesday 22 Oct 2014 (Local Time) from KCMI Reporting Station
Clear Clear  
Wind Chill: 32°   Ceiling: Unl
Heat Index: 36°   Visibility: 10mi
Dew Point: 34°   Wind: 5mph
Humidity: 93%   Direction: 50°NE
Pressure: 30.31"   Gusts: NA
Location:  40.0093°N, 88.5358°W
Report Text: KCMI 221153Z 05004KT 10SM CLR 02/01 A3031 RMK AO2 SLP268 T00220011 10067 20022 53015 $
Loading
Personal Weather Stations






























Interactive Weather Map
Tropical Storm Tracking
New forecast layout! Learn more

10-Day Weather Forecast

Advertisements
Track Severe Weather on mobile